Time;durP1;ratioP1;P1;durP2;ratioP2;P2;SDS_P1;SDS_P2;PMS_P1;PMS_P2;Temp;Humidity;BMP_temperature;BMP_pressure;BME280_temperature;BME280_humidity;BME280_pressure;Samples;Min_cycle;Max_cycle;Signal;HPM_P1;HPM_P2
2022/09/02 00:01:23;;;;;;;;;;;17.30;56.50;;;13.18;85.46;95464.91;4994555;28;19913;-44
2022/09/02 00:03:51;;;;;;;;;;;17.20;56.60;;;13.11;85.87;95465.25;5010256;28;19917;-45
2022/09/02 00:06:36;;;;;;;;;;;17.20;56.70;;;13.06;86.10;95462.63;5010860;28;19916;-44
2022/09/02 00:09:08;;;;;;;;;;;17.20;56.70;;;13.04;86.32;95461.34;5011849;28;20380;-44
2022/09/02 00:11:39;;;;;;;;;;;17.20;56.80;;;13.01;86.50;95457.34;4994501;28;20036;-43
2022/09/02 00:14:11;;;;;;;;;;;17.10;56.80;;;12.98;86.79;95454.44;4988392;28;19963;-44
2022/09/02 00:16:41;;;;;;;;;;;17.10;57.00;;;12.95;86.68;95455.78;4992661;28;19916;-43
2022/09/02 00:19:10;;;;;;;;;;;17.10;57.10;;;12.91;87.17;95455.56;4990806;28;20300;-44
2022/09/02 00:21:38;;;;;;;;;;;17.00;57.10;;;12.87;87.02;95456.41;4988009;28;20015;-44
2022/09/02 00:24:05;;;;;;;;;;;17.00;57.10;;;12.82;87.42;95459.13;5009673;28;19913;-44
2022/09/02 00:26:34;;;;;;;;;;;16.90;57.20;;;12.78;87.88;95452.72;5009954;28;19913;-44
2022/09/02 00:29:04;;;;;;;;;;;16.90;57.30;;;12.71;88.10;95450.38;5011498;28;19909;-49
2022/09/02 00:31:33;;;;;;;;;;;16.80;57.30;;;12.68;88.35;95454.41;5010250;28;19909;-46
2022/09/02 00:34:04;;;;;;;;;;;16.80;57.30;;;12.62;88.82;95446.72;5011127;28;19970;-44
2022/09/02 00:36:34;;;;;;;;;;;16.80;57.40;;;12.58;89.08;95449.16;5026684;28;20347;-44
2022/09/02 00:39:01;;;;;;;;;;;16.80;57.60;;;12.56;89.36;95437.16;5010232;28;20381;-43
2022/09/02 00:41:29;;;;;;;;;;;16.70;57.70;;;12.54;89.47;95448.13;5011188;28;19913;-44
2022/09/02 00:44:03;;;;;;;;;;;16.70;57.80;;;12.53;89.65;95437.72;5010945;28;19912;-46
2022/09/02 00:46:45;;;;;;;;;;;16.70;57.90;;;12.52;89.86;95442.25;5009427;28;19909;-44
2022/09/02 00:49:32;;;;;;;;;;;16.60;57.90;;;12.53;89.65;95441.19;4993786;28;19914;-46
2022/09/02 00:52:23;;;;;;;;;;;16.60;58.10;;;12.50;89.87;95436.41;4992779;28;19910;-44
2022/09/02 00:55:15;;;;;;;;;;;16.60;58.20;;;12.49;90.08;95437.47;4983445;28;19914;-46
2022/09/02 00:58:08;;;;;;;;;;;16.60;58.30;;;12.47;90.19;95434.28;5004279;28;19960;-48
2022/09/02 01:00:41;;;;;;;;;;;16.60;58.40;;;12.46;90.48;95432.69;4981725;28;19963;-46
2022/09/02 01:03:18;;;;;;;;;;;16.50;58.40;;;12.45;90.39;95441.81;4997598;28;20269;-43
2022/09/02 01:05:48;;;;;;;;;;;16.50;58.50;;;12.45;90.60;95436.47;4994369;28;19999;-47
2022/09/02 01:08:33;;;;;;;;;;;16.50;58.60;;;12.43;90.34;95431.38;4994049;28;19909;-48
2022/09/02 01:11:01;;;;;;;;;;;16.50;58.60;;;12.42;90.35;95437.81;5009904;28;19952;-45
2022/09/02 01:13:34;;;;;;;;;;;16.50;58.70;;;12.44;90.20;95433.00;4992914;28;19917;-45
2022/09/02 01:16:29;;;;;;;;;;;16.50;58.80;;;12.41;90.28;95438.06;4994314;28;20004;-48
2022/09/02 01:19:00;;;;;;;;;;;16.50;58.80;;;12.42;90.21;95429.00;5004350;28;19976;-44
2022/09/02 01:21:27;;;;;;;;;;;16.50;59.00;;;12.41;90.13;95432.72;4990058;28;19932;-46
2022/09/02 01:23:54;;;;;;;;;;;16.50;59.00;;;12.41;90.05;95433.56;4978269;28;19917;-44
2022/09/02 01:26:20;;;;;;;;;;;16.50;59.00;;;12.40;90.08;95431.94;4998333;28;19917;-45
2022/09/02 01:28:48;;;;;;;;;;;16.50;59.00;;;12.40;89.94;95434.59;5009623;28;20378;-49
2022/09/02 01:31:14;;;;;;;;;;;16.50;59.10;;;12.40;90.08;95433.81;5010969;28;20003;-47
2022/09/02 01:33:40;;;;;;;;;;;16.50;59.20;;;12.37;89.99;95431.69;5010497;28;19915;-46
2022/09/02 01:36:07;;;;;;;;;;;16.50;59.20;;;12.38;89.83;95433.28;5009256;28;19963;-43
2022/09/02 01:38:39;;;;;;;;;;;16.40;59.20;;;12.37;89.59;95435.16;5009266;28;19920;-44
2022/09/02 01:41:05;;;;;;;;;;;16.50;59.20;;;12.33;89.71;95431.47;5010820;28;19913;-44
2022/09/02 01:43:45;;;;;;;;;;;16.40;59.20;;;12.29;89.78;95430.44;4960241;28;19924;-44
2022/09/02 01:46:14;;;;;;;;;;;16.40;59.20;;;12.27;89.68;95430.69;5009754;28;20347;-44
2022/09/02 01:48:50;;;;;;;;;;;16.40;59.30;;;12.25;89.79;95426.69;5010759;28;19909;-44
2022/09/02 01:51:20;;;;;;;;;;;16.40;59.30;;;12.22;89.77;95425.41;5010990;28;20434;-44
2022/09/02 01:53:47;;;;;;;;;;;16.40;59.30;;;12.19;90.17;95428.63;5008779;28;19916;-44
2022/09/02 01:56:14;;;;;;;;;;;16.30;59.40;;;12.17;90.14;95424.66;5009729;28;20317;-48
2022/09/02 01:59:03;;;;;;;;;;;16.30;59.40;;;12.14;90.23;95426.00;5013666;28;19916;-43
2022/09/02 02:01:35;;;;;;;;;;;16.30;59.50;;;12.12;90.57;95427.34;5013262;28;19913;-43
2022/09/02 02:04:04;;;;;;;;;;;16.30;59.50;;;12.13;90.57;95423.63;5013649;28;19946;-52
2022/09/02 02:06:41;;;;;;;;;;;16.20;59.50;;;12.10;90.82;95421.50;4996441;28;19916;-45
2022/09/02 02:09:08;;;;;;;;;;;16.20;59.60;;;12.09;90.88;95430.56;5013957;28;19909;-48
2022/09/02 02:11:38;;;;;;;;;;;16.20;59.60;;;12.08;90.76;95423.63;5014296;28;19913;-47
2022/09/02 02:14:04;;;;;;;;;;;16.20;59.70;;;12.06;90.89;95420.44;5012458;28;20719;-44
2022/09/02 02:16:44;;;;;;;;;;;16.20;59.70;;;12.02;91.08;95420.19;4984546;28;19971;-45
2022/09/02 02:19:10;;;;;;;;;;;16.10;60.40;;;12.02;91.05;95421.00;5009226;28;19920;-45
2022/09/02 02:21:39;;;;;;;;;;;16.20;59.80;;;11.98;91.45;95425.31;5004590;28;19909;-44
2022/09/02 02:24:07;;;;;;;;;;;16.10;59.80;;;11.99;91.38;95424.22;4990252;28;20000;-45
2022/09/02 02:26:34;;;;;;;;;;;16.10;60.60;;;11.98;91.51;95419.16;4994210;28;19918;-44
2022/09/02 02:29:00;;;;;;;;;;;16.10;59.90;;;11.96;91.48;95427.44;5009480;28;20375;-43
2022/09/02 02:31:26;;;;;;;;;;;16.10;60.00;;;11.97;91.55;95430.91;4996401;28;19959;-48
2022/09/02 02:34:08;;;;;;;;;;;16.10;60.00;;;11.94;91.63;95420.78;5013359;28;19913;-42
2022/09/02 02:36:41;;;;;;;;;;;16.10;60.00;;;11.93;91.70;95419.19;5013395;28;19909;-45
2022/09/02 02:39:11;;;;;;;;;;;16.10;60.10;;;11.91;91.63;95419.47;4996142;28;20345;-44
2022/09/02 02:41:41;;;;;;;;;;;16.10;60.10;;;11.90;91.67;95417.88;5012373;28;19913;-46
2022/09/02 02:44:13;;;;;;;;;;;16.00;60.10;;;11.88;91.39;95422.69;5028210;28;20610;-44
2022/09/02 02:46:43;;;;;;;;;;;16.00;60.10;;;11.84;91.85;95424.28;5012377;28;19916;-45
2022/09/02 02:49:09;;;;;;;;;;;16.00;60.10;;;11.79;92.03;95422.44;5012284;28;19909;-48
2022/09/02 02:51:42;;;;;;;;;;;16.00;60.10;;;11.75;92.06;95428.59;5011958;28;19916;-46
2022/09/02 02:54:09;;;;;;;;;;;16.00;60.10;;;11.69;92.64;95422.50;5012882;28;19909;-45
2022/09/02 02:56:44;;;;;;;;;;;15.90;60.20;;;11.64;92.76;95417.19;5011923;28;19909;-45
2022/09/02 02:59:10;;;;;;;;;;;15.90;60.30;;;11.61;92.96;95427.63;4995945;28;19953;-44
2022/09/02 03:01:36;;;;;;;;;;;15.80;60.30;;;11.57;93.34;95428.16;5013198;28;19986;-47
2022/09/02 03:04:05;;;;;;;;;;;15.80;60.40;;;11.56;93.05;95436.44;5011552;28;20445;-44
2022/09/02 03:06:37;;;;;;;;;;;15.70;60.40;;;11.52;93.30;95430.84;4995342;28;19916;-42
2022/09/02 03:09:04;;;;;;;;;;;15.70;60.50;;;11.51;93.32;95428.47;4995109;28;20615;-44
2022/09/02 03:11:30;;;;;;;;;;;15.70;60.50;;;11.45;93.06;95430.34;4993052;28;19909;-51
2022/09/02 03:13:57;;;;;;;;;;;15.70;60.60;;;11.41;93.50;95425.84;4991703;28;19940;-46
2022/09/02 03:16:26;;;;;;;;;;;15.60;60.50;;;11.38;94.11;95429.84;4991702;28;19909;-47
2022/09/02 03:18:52;;;;;;;;;;;15.60;60.60;;;11.35;94.39;95433.84;4993175;28;19917;-44
2022/09/02 03:21:18;;;;;;;;;;;15.60;60.70;;;11.35;94.45;95431.19;4993059;28;19910;-43
2022/09/02 03:23:56;;;;;;;;;;;15.60;60.80;;;11.32;94.70;95430.94;4991531;28;19909;-44
2022/09/02 03:26:25;;;;;;;;;;;15.60;60.90;;;11.30;94.55;95422.41;4993159;28;19924;-50
2022/09/02 03:28:55;;;;;;;;;;;15.50;60.80;;;11.26;94.31;95421.38;4991658;28;19910;-44
2022/09/02 03:31:24;;;;;;;;;;;15.50;60.90;;;11.23;93.76;95430.69;4983436;28;19952;-44
2022/09/02 03:33:53;;;;;;;;;;;15.50;60.90;;;11.17;94.19;95431.78;5011056;28;19996;-45
2022/09/02 03:36:33;;;;;;;;;;;15.40;60.80;;;11.11;94.63;95427.53;5011089;28;20003;-44
2022/09/02 03:39:01;;;;;;;;;;;15.40;60.90;;;11.06;94.03;95436.34;5011091;28;19920;-52
2022/09/02 03:41:27;;;;;;;;;;;15.30;60.80;;;10.99;93.67;95433.16;4994749;28;19909;-42
2022/09/02 03:43:56;;;;;;;;;;;15.30;60.90;;;10.93;94.39;95436.91;4994601;28;19916;-46
2022/09/02 03:46:24;;;;;;;;;;;15.30;60.90;;;10.89;93.67;95435.84;5000915;28;19964;-47
2022/09/02 03:48:50;;;;;;;;;;;15.20;61.00;;;10.82;93.85;95441.47;5001729;28;20349;-43
2022/09/02 03:51:19;;;;;;;;;;;15.20;61.10;;;10.75;94.41;95432.97;5004323;28;20349;-47
2022/09/02 03:53:45;;;;;;;;;;;15.10;61.00;;;10.69;96.28;95434.03;5003579;28;19909;-45
2022/09/02 03:56:14;;;;;;;;;;;15.10;61.10;;;10.68;96.72;95435.06;4988235;28;19913;-43
2022/09/02 03:58:50;;;;;;;;;;;15.00;61.10;;;10.65;96.68;95439.09;5004422;28;20012;-45
2022/09/02 04:01:20;;;;;;;;;;;15.00;61.30;;;10.62;96.46;95430.81;5003939;28;19945;-49
2022/09/02 04:03:47;;;;;;;;;;;15.00;61.40;;;10.59;96.85;95434.03;4991701;28;19913;-48
2022/09/02 04:06:17;;;;;;;;;;;14.90;61.40;;;10.56;96.85;95434.56;5005176;28;19962;-43
2022/09/02 04:08:48;;;;;;;;;;;14.90;61.40;;;10.53;97.32;95435.09;4994884;28;19916;-45
2022/09/02 04:11:20;;;;;;;;;;;14.80;61.40;;;10.49;98.18;95432.16;5011938;28;20002;-47
2022/09/02 04:13:48;;;;;;;;;;;14.80;61.50;;;10.49;98.71;95431.38;5001340;28;19921;-44
2022/09/02 04:16:19;;;;;;;;;;;14.80;61.60;;;10.46;97.92;95429.25;4992063;28;20284;-50
2022/09/02 04:18:45;;;;;;;;;;;14.80;61.70;;;10.41;97.44;95433.50;4991804;28;19914;-44
2022/09/02 04:21:12;;;;;;;;;;;14.80;61.80;;;10.39;97.56;95424.97;4997832;28;19913;-43
2022/09/02 04:23:44;;;;;;;;;;;14.70;61.80;;;10.31;97.54;95430.84;5011063;28;20007;-45
2022/09/02 04:26:15;;;;;;;;;;;14.70;61.80;;;10.30;97.70;95423.91;5010257;28;19909;-43
2022/09/02 04:28:41;;;;;;;;;;;14.70;61.90;;;10.29;97.38;95430.31;5011652;28;20345;-43
2022/09/02 04:31:14;;;;;;;;;;;14.60;61.80;;;10.26;97.73;95430.84;5011175;28;20004;-43
2022/09/02 04:33:40;;;;;;;;;;;14.60;62.00;;;10.22;97.05;95435.06;5010971;28;19944;-43
2022/09/02 04:36:16;;;;;;;;;;;14.50;61.90;;;10.16;97.31;95433.47;5009796;28;19909;-45
2022/09/02 04:38:42;;;;;;;;;;;14.50;62.00;;;10.14;97.30;95430.28;5010198;28;20027;-44
2022/09/02 04:41:13;;;;;;;;;;;14.50;62.10;;;10.09;96.96;95435.56;5026484;28;19952;-43
2022/09/02 04:43:39;;;;;;;;;;;14.50;62.10;;;10.06;97.10;95441.44;5009768;28;19916;-50
2022/09/02 04:46:12;;;;;;;;;;;14.40;62.10;;;10.02;98.55;95435.84;5010001;28;20446;-43
2022/09/02 04:48:39;;;;;;;;;;;14.40;62.20;;;10.04;98.31;95439.03;5007399;28;20367;-43
2022/09/02 04:51:18;;;;;;;;;;;14.40;62.20;;;10.00;98.30;95423.84;4983184;28;19913;-43
2022/09/02 04:53:46;;;;;;;;;;;14.40;62.40;;;9.96;98.99;95435.06;5011076;28;20375;-43
2022/09/02 04:56:19;;;;;;;;;;;14.40;62.40;;;9.95;99.34;95428.13;5010064;28;19974;-43
2022/09/02 04:58:45;;;;;;;;;;;14.40;62.50;;;9.96;99.91;95420.91;5011396;28;19954;-44
2022/09/02 05:01:23;;;;;;;;;;;14.30;62.50;;;10.02;99.79;95427.84;5011327;28;19913;-47
2022/09/02 05:03:49;;;;;;;;;;;14.40;62.70;;;10.05;99.58;95424.66;5011289;28;20473;-42
2022/09/02 05:06:20;;;;;;;;;;;14.40;62.70;;;10.13;99.85;95431.34;5011000;28;19916;-45
2022/09/02 05:09:00;;;;;;;;;;;14.40;62.90;;;10.29;99.89;95426.84;5010827;28;19913;-46
2022/09/02 05:11:29;;;;;;;;;;;14.40;62.90;;;10.44;99.47;95431.38;4993562;28;19916;-48
2022/09/02 05:14:00;;;;;;;;;;;14.50;63.00;;;10.59;99.07;95420.69;5001380;28;19964;-51
2022/09/02 05:16:35;;;;;;;;;;;14.60;63.00;;;10.75;98.05;95422.31;4983698;28;20395;-48
2022/09/02 05:19:06;;;;;;;;;;;14.70;63.00;;;10.89;97.20;95430.53;4984925;28;20439;-49
2022/09/02 05:21:32;;;;;;;;;;;14.80;63.00;;;11.05;96.23;95429.41;4990628;28;19915;-53
2022/09/02 05:23:58;;;;;;;;;;;15.00;63.10;;;11.22;95.96;95436.28;5006590;28;20005;-51
2022/09/02 05:26:24;;;;;;;;;;;15.10;63.00;;;11.41;96.01;95437.31;4992790;28;20004;-50
2022/09/02 05:28:50;;;;;;;;;;;15.20;62.90;;;11.58;94.86;95431.63;4989961;28;19917;-53
2022/09/02 05:31:19;;;;;;;;;;;15.40;62.80;;;11.73;93.52;95439.56;4986838;28;19918;-49
2022/09/02 05:33:46;;;;;;;;;;;15.60;62.70;;;11.85;91.97;95431.25;4991005;28;20357;-50
2022/09/02 05:36:17;;;;;;;;;;;15.70;62.50;;;11.94;90.46;95432.28;5003378;28;19955;-53
2022/09/02 05:38:44;;;;;;;;;;;15.90;62.30;;;12.02;89.58;95428.22;5014833;28;19909;-48
2022/09/02 05:41:22;;;;;;;;;;;16.00;62.00;;;12.12;89.33;95430.00;5030220;28;19940;-49
2022/09/02 05:43:53;;;;;;;;;;;16.20;61.80;;;12.28;89.39;95431.50;5014398;28;19940;-51
2022/09/02 05:46:23;;;;;;;;;;;16.40;61.60;;;12.50;88.35;95431.06;4997281;28;20291;-47
2022/09/02 05:49:07;;;;;;;;;;;16.60;61.40;;;12.74;87.82;95431.91;5013303;28;19959;-48
2022/09/02 05:51:41;;;;;;;;;;;16.90;61.30;;;13.03;86.38;95428.41;4984735;28;19976;-50
2022/09/02 05:54:14;;;;;;;;;;;17.10;61.10;;;13.27;85.38;95427.69;4992353;28;20245;-51
2022/09/02 05:56:45;;;;;;;;;;;17.40;60.90;;;13.46;83.88;95428.53;4987453;28;20626;-48
2022/09/02 05:59:12;;;;;;;;;;;17.70;60.60;;;13.59;82.92;95433.16;4991470;28;19924;-47
2022/09/02 06:01:43;;;;;;;;;;;17.90;60.20;;;13.77;82.40;95430.81;4990141;28;20308;-54
2022/09/02 06:04:09;;;;;;;;;;;18.20;60.00;;;13.89;81.53;95434.66;4991461;28;19909;-54
2022/09/02 06:06:40;;;;;;;;;;;18.40;59.70;;;14.09;80.84;95428.22;4993574;28;19915;-54
2022/09/02 06:09:10;;;;;;;;;;;18.70;59.40;;;14.28;79.90;95433.56;4993379;28;19914;-54
2022/09/02 06:11:43;;;;;;;;;;;18.90;59.20;;;14.43;79.80;95442.47;4992189;28;19909;-51
2022/09/02 06:14:12;;;;;;;;;;;19.10;59.00;;;14.58;78.75;95437.69;4992716;28;19952;-53
2022/09/02 06:16:39;;;;;;;;;;;19.40;58.70;;;14.72;77.73;95444.97;4992915;28;19913;-53
2022/09/02 06:19:06;;;;;;;;;;;19.60;58.60;;;14.85;77.46;95443.41;4993115;28;20410;-53
2022/09/02 06:21:32;;;;;;;;;;;19.80;58.30;;;14.97;76.69;95444.53;4992713;28;19920;-48
2022/09/02 06:23:59;;;;;;;;;;;20.00;58.10;;;15.18;75.63;95438.81;4994119;28;19910;-50
2022/09/02 06:26:26;;;;;;;;;;;20.20;57.90;;;15.32;75.22;95439.59;4994029;28;20436;-51
2022/09/02 06:28:51;;;;;;;;;;;20.40;57.80;;;15.46;74.26;95439.59;4996684;28;19922;-51
2022/09/02 06:31:21;;;;;;;;;;;20.60;57.60;;;15.63;73.89;95430.94;5015259;28;19979;-49
2022/09/02 06:33:56;;;;;;;;;;;20.70;57.40;;;15.77;73.10;95434.44;4991533;28;20011;-54
2022/09/02 06:36:27;;;;;;;;;;;20.90;57.10;;;15.92;72.13;95433.34;4992559;28;19917;-53
2022/09/02 06:38:56;;;;;;;;;;;21.10;56.90;;;15.98;72.06;95437.47;4992865;28;19913;-53
2022/09/02 06:41:28;;;;;;;;;;;21.30;56.60;;;16.19;71.84;95427.06;5005841;28;19913;-49
2022/09/02 06:43:58;;;;;;;;;;;21.50;56.50;;;16.22;71.25;95434.53;5011182;28;19912;-50
2022/09/02 06:46:29;;;;;;;;;;;21.70;56.20;;;16.40;70.19;95427.41;5013475;28;19913;-50
2022/09/02 06:48:58;;;;;;;;;;;21.80;56.00;;;16.54;69.63;95433.50;5012312;28;20003;-52
2022/09/02 06:51:28;;;;;;;;;;;22.10;55.80;;;16.65;69.29;95426.78;5028300;28;19909;-54
2022/09/02 06:53:54;;;;;;;;;;;22.20;55.50;;;16.77;69.39;95420.09;5013167;28;19908;-52
2022/09/02 06:56:23;;;;;;;;;;;22.40;55.20;;;16.75;68.67;95417.69;5028438;28;19909;-51
2022/09/02 06:58:58;;;;;;;;;;;22.60;54.90;;;16.85;68.67;95422.81;5012950;28;19956;-50
2022/09/02 07:01:31;;;;;;;;;;;22.70;54.60;;;16.73;68.71;95433.31;5011663;28;19949;-52
2022/09/02 07:06:48;;;;;;;;;;;23.00;54.20;;;17.11;67.57;95420.28;5013191;28;20008;-52
2022/09/02 07:09:19;;;;;;;;;;;23.20;54.00;;;17.27;67.64;95426.03;5011663;28;19913;-50
2022/09/02 07:11:49;;;;;;;;;;;23.40;53.80;;;16.98;67.57;95428.44;5011276;28;19964;-53
2022/09/02 07:14:19;;;;;;;;;;;23.60;53.60;;;16.87;67.90;95425.22;5004728;28;20050;-53
2022/09/02 07:16:50;;;;;;;;;;;23.70;53.20;;;16.87;68.21;95427.91;4993354;28;19916;-53
2022/09/02 07:19:17;;;;;;;;;;;23.70;53.00;;;17.16;68.07;95429.31;4992356;28;19917;-53
2022/09/02 07:21:46;;;;;;;;;;;23.90;52.80;;;17.27;67.57;95423.34;5003610;28;20387;-49
2022/09/02 07:24:16;;;;;;;;;;;23.90;52.60;;;17.22;67.85;95425.38;4995114;28;19932;-54
2022/09/02 07:29:42;;;;;;;;;;;24.20;52.30;;;17.73;66.48;95430.13;5012571;28;20328;-52
2022/09/02 07:32:09;;;;;;;;;;;24.40;52.20;;;18.04;65.15;95437.34;5012073;28;19977;-47
2022/09/02 07:34:35;;;;;;;;;;;24.50;52.10;;;18.27;64.57;95433.44;5011341;28;19912;-53
2022/09/02 07:37:01;;;;;;;;;;;24.60;52.00;;;18.38;64.06;95435.81;4994907;28;19920;-55
2022/09/02 07:39:29;;;;;;;;;;;24.70;51.80;;;18.56;62.76;95437.38;5012605;28;19999;-49
2022/09/02 07:41:57;;;;;;;;;;;25.00;51.70;;;18.53;63.67;95434.53;5011894;28;19909;-54
2022/09/02 07:44:23;;;;;;;;;;;25.20;51.40;;;18.66;62.46;95431.66;4993308;28;19916;-49
2022/09/02 07:46:50;;;;;;;;;;;25.30;51.00;;;19.07;61.87;95438.44;4991187;28;19909;-46
2022/09/02 07:49:17;;;;;;;;;;;25.60;51.00;;;19.37;61.13;95433.09;4989244;28;20384;-49
2022/09/02 07:51:50;;;;;;;;;;;25.80;50.70;;;19.68;60.02;95427.44;4990274;28;19909;-49
2022/09/02 07:54:22;;;;;;;;;;;26.10;50.50;;;19.78;58.97;95426.25;4974411;28;19917;-49
2022/09/02 07:56:51;;;;;;;;;;;26.30;50.10;;;20.04;58.49;95434.19;4989991;28;19909;-49
2022/09/02 07:59:20;;;;;;;;;;;26.60;50.00;;;20.14;58.53;95435.72;4989838;28;19913;-51
2022/09/02 08:01:50;;;;;;;;;;;26.70;50.20;;;20.17;58.59;95438.56;4976313;28;20394;-50
2022/09/02 08:04:20;;;;;;;;;;;27.00;49.20;;;20.44;57.47;95433.75;4974174;28;19974;-52
2022/09/02 08:06:46;;;;;;;;;;;27.20;49.00;;;20.61;57.64;95432.84;4991591;28;20284;-54
2022/09/02 08:09:12;;;;;;;;;;;27.40;48.70;;;20.83;56.70;95437.09;4990277;28;19975;-51
2022/09/02 08:11:43;;;;;;;;;;;27.50;48.50;;;21.24;55.55;95436.19;5005788;28;19960;-50
2022/09/02 08:14:27;;;;;;;;;;;27.60;48.30;;;21.32;54.74;95439.94;4991008;28;20419;-53
2022/09/02 08:17:14;;;;;;;;;;;27.70;48.10;;;21.20;54.94;95433.34;4990668;28;19948;-52
2022/09/02 08:19:39;;;;;;;;;;;27.80;47.70;;;21.36;54.63;95444.34;4990948;28;19909;-55
2022/09/02 08:22:05;;;;;;;;;;;28.00;47.60;;;21.53;53.99;95434.44;4991631;28;20275;-53
2022/09/02 08:24:38;;;;;;;;;;;28.10;47.40;;;21.65;53.78;95434.44;4982701;28;19909;-53
2022/09/02 08:27:04;;;;;;;;;;;28.20;47.10;;;21.84;53.78;95434.69;5010288;28;19917;-55
2022/09/02 08:29:41;;;;;;;;;;;28.40;46.90;;;22.15;53.17;95435.97;5026590;28;19913;-53
2022/09/02 08:32:07;;;;;;;;;;;28.60;46.70;;;22.14;52.36;95440.63;5011227;28;19955;-50
2022/09/02 08:34:33;;;;;;;;;;;28.70;46.50;;;22.08;53.56;95433.06;5010280;28;20644;-52
2022/09/02 08:37:06;;;;;;;;;;;28.90;46.40;;;22.32;52.61;95437.69;5010225;28;19947;-47
2022/09/02 08:39:31;;;;;;;;;;;29.00;46.20;;;22.45;52.61;95431.09;5009923;28;19917;-48
2022/09/02 08:42:48;;;;;;;;;;;29.20;46.10;;;22.64;50.90;95425.03;5009641;28;19932;-52
2022/09/02 08:45:24;;;;;;;;;;;29.30;45.90;;;22.89;50.73;95428.44;5007494;28;19958;-49
2022/09/02 08:48:20;;;;;;;;;;;29.40;45.60;;;23.15;50.29;95424.47;4993783;28;19912;-47
2022/09/02 08:50:51;;;;;;;;;;;29.70;45.40;;;23.27;49.20;95427.13;4993732;28;20368;-47
2022/09/02 08:53:51;;;;;;;;;;;29.90;45.00;;;23.59;48.23;95432.56;5010568;28;20037;-47
2022/09/02 08:56:20;;;;;;;;;;;30.10;44.80;;;23.89;48.12;95425.53;5011043;28;19913;-46
2022/09/02 08:59:02;;;;;;;;;;;30.40;44.60;;;24.10;47.74;95421.72;5009997;28;19916;-49
2022/09/02 09:02:11;;;;;;;;;;;30.60;44.40;;;24.38;46.76;95416.91;5009466;28;19909;-52
2022/09/02 09:05:21;;;;;;;;;;;30.80;44.20;;;24.75;46.42;95421.16;5011341;28;19909;-52
2022/09/02 09:08:09;;;;;;;;;;;31.10;43.80;;;24.74;46.91;95419.59;5010362;28;19916;-48
2022/09/02 09:11:19;;;;;;;;;;;31.40;43.40;;;24.64;46.77;95416.28;5011195;28;20299;-48
2022/09/02 09:14:41;;;;;;;;;;;31.60;43.20;;;25.01;45.97;95415.84;4999022;28;20319;-47
2022/09/02 09:17:38;;;;;;;;;;;31.80;42.80;;;25.08;46.12;95413.22;4998855;28;19920;-50
2022/09/02 09:20:20;;;;;;;;;;;32.00;42.60;;;24.78;46.76;95414.97;5000869;28;20369;-49
2022/09/02 09:22:55;;;;;;;;;;;32.10;42.00;;;25.00;46.34;95406.06;5001803;28;20013;-50
2022/09/02 09:25:28;;;;;;;;;;;32.10;41.80;;;25.03;45.66;95399.09;5002002;28;19911;-50
2022/09/02 09:28:01;;;;;;;;;;;32.20;41.60;;;25.22;46.32;95401.03;4985673;28;20004;-48
2022/09/02 09:30:28;;;;;;;;;;;32.20;41.50;;;25.48;45.95;95403.00;4998742;28;19917;-49
2022/09/02 09:32:58;;;;;;;;;;;32.30;41.40;;;25.43;45.83;95404.13;4990802;28;19913;-48
2022/09/02 09:35:48;;;;;;;;;;;32.40;41.40;;;25.24;46.73;95404.97;5004836;28;19909;-47
2022/09/02 09:38:14;;;;;;;;;;;32.50;41.20;;;25.22;45.93;95403.75;5009530;28;20346;-47
2022/09/02 09:40:46;;;;;;;;;;;32.50;41.00;;;25.39;45.41;95401.34;5009741;28;19936;-53
2022/09/02 09:43:16;;;;;;;;;;;32.60;41.00;;;25.38;44.82;95397.06;4992933;28;19913;-48
2022/09/02 09:45:50;;;;;;;;;;;32.70;40.70;;;25.50;45.06;95398.00;5009555;28;19972;-47
2022/09/02 09:48:15;;;;;;;;;;;32.70;40.50;;;25.56;45.15;95394.59;4991263;28;19932;-51
2022/09/02 09:50:43;;;;;;;;;;;32.80;40.40;;;25.55;44.48;95397.69;5005919;28;20633;-53
2022/09/02 09:53:31;;;;;;;;;;;32.80;40.20;;;25.68;43.60;95390.09;4990554;28;20321;-49
2022/09/02 09:56:06;;;;;;;;;;;32.90;40.00;;;25.68;43.98;95395.56;4977249;28;19937;-48
2022/09/02 09:58:38;;;;;;;;;;;33.00;39.80;;;26.13;43.07;95391.16;4974973;28;19913;-53
2022/09/02 10:01:39;;;;;;;;;;;33.10;39.70;;;26.59;42.39;95399.97;4995101;28;19914;-53
2022/09/02 10:04:31;;;;;;;;;;;33.30;39.80;;;26.64;42.04;95387.97;4952361;28;19933;-49
2022/09/02 10:06:58;;;;;;;;;;;33.50;39.70;;;26.65;41.82;95392.25;4957631;28;20280;-51
2022/09/02 10:09:33;;;;;;;;;;;33.60;39.30;;;26.76;42.21;95390.41;4962649;28;19921;-51
2022/09/02 10:12:13;;;;;;;;;;;33.70;39.10;;;26.95;41.11;95381.25;4989762;28;19921;-53
2022/09/02 10:14:47;;;;;;;;;;;33.90;39.00;;;27.24;41.42;95381.56;4990372;28;19971;-48
2022/09/02 10:17:42;;;;;;;;;;;33.90;38.80;;;27.52;40.54;95387.28;4997419;28;20368;-50
2022/09/02 10:20:29;;;;;;;;;;;34.20;38.70;;;27.47;40.87;95381.38;4977617;28;20324;-53
2022/09/02 10:23:25;;;;;;;;;;;34.40;38.40;;;27.49;40.59;95382.56;4962099;28;19910;-49
2022/09/02 10:26:28;;;;;;;;;;;34.50;38.10;;;27.63;41.05;95379.16;5000899;28;19944;-50
2022/09/02 10:29:40;;;;;;;;;;;34.50;37.90;;;27.86;40.68;95378.94;4984657;28;19920;-50
2022/09/02 10:32:09;;;;;;;;;;;34.70;37.80;;;28.20;39.52;95370.56;4988984;28;20012;-50
2022/09/02 10:35:19;;;;;;;;;;;34.80;37.70;;;27.94;39.47;95371.59;4991969;28;19909;-54
2022/09/02 10:38:23;;;;;;;;;;;34.90;37.40;;;27.89;39.57;95379.00;5008787;28;19913;-48
2022/09/02 10:41:30;;;;;;;;;;;35.00;37.30;;;27.86;40.16;95370.72;4989417;28;19917;-50
2022/09/02 10:44:19;;;;;;;;;;;35.10;37.10;;;28.24;39.58;95363.94;4990998;28;19996;-50
2022/09/02 10:47:40;;;;;;;;;;;35.20;37.10;;;28.58;38.28;95366.44;4990566;28;20375;-48
2022/09/02 10:50:35;;;;;;;;;;;35.50;37.20;;;28.72;37.69;95369.25;4947889;28;19913;-50
2022/09/02 10:53:20;;;;;;;;;;;35.80;37.00;;;28.54;38.22;95360.16;5007980;28;20192;-49
2022/09/02 10:56:10;;;;;;;;;;;36.00;36.80;;;28.71;38.03;95364.16;5003818;28;19917;-50
2022/09/02 10:59:07;;;;;;;;;;;36.10;36.50;;;28.55;38.41;95353.50;5007462;28;19910;-49
2022/09/02 11:02:10;;;;;;;;;;;36.20;36.40;;;28.95;38.08;95351.66;4992325;28;19920;-54
2022/09/02 11:05:07;;;;;;;;;;;36.30;36.40;;;28.99;37.68;95347.78;5001155;28;19913;-50
2022/09/02 11:07:56;;;;;;;;;;;36.40;36.20;;;29.29;37.76;95341.16;5012843;28;19912;-50
2022/09/02 11:10:57;;;;;;;;;;;36.70;36.10;;;29.48;37.20;95340.00;4999709;28;20012;-48
2022/09/02 11:13:59;;;;;;;;;;;36.80;35.80;;;29.16;36.88;95346.25;5005472;22;19928;-45
2022/09/02 11:16:37;;;;;;;;;;;36.90;35.60;;;28.87;37.85;95341.88;4983639;28;20331;-45
2022/09/02 11:19:44;;;;;;;;;;;36.90;35.40;;;29.00;37.77;95343.84;4986496;28;19920;-44
2022/09/02 11:22:44;;;;;;;;;;;37.00;35.40;;;28.95;37.78;95332.47;4978587;28;20476;-48
2022/09/02 11:25:20;;;;;;;;;;;37.10;35.10;;;28.69;38.98;95339.09;4952923;28;19910;-48
2022/09/02 11:28:22;;;;;;;;;;;37.10;34.90;;;29.09;38.22;95338.03;4953364;28;19942;-45
2022/09/02 11:31:14;;;;;;;;;;;37.10;34.90;;;29.07;38.35;95336.84;4954656;28;19961;-45
2022/09/02 11:34:15;;;;;;;;;;;37.20;35.40;;;29.29;38.31;95341.94;4964245;28;19960;-45
2022/09/02 11:36:44;;;;;;;;;;;37.30;34.70;;;29.32;37.26;95348.59;4946593;28;19914;-46
2022/09/02 11:39:19;;;;;;;;;;;37.30;34.60;;;28.90;37.98;95335.63;4956955;28;19971;-47
2022/09/02 11:42:36;;;;;;;;;;;37.40;34.50;;;29.34;37.54;95332.56;4972293;28;19910;-46
2022/09/02 11:45:28;;;;;;;;;;;37.40;34.30;;;29.77;36.57;95329.00;4949776;28;19923;-44
2022/09/02 11:48:35;;;;;;;;;;;37.60;34.30;;;29.56;37.24;95322.34;4981851;28;19910;-48
2022/09/02 11:51:22;;;;;;;;;;;37.70;34.10;;;29.52;36.85;95332.53;4963856;28;20403;-44
2022/09/02 11:53:50;;;;;;;;;;;37.70;33.90;;;29.51;37.65;95341.94;4963733;28;20296;-44
2022/09/02 11:56:35;;;;;;;;;;;37.90;34.00;;;29.47;37.73;95332.94;4952659;28;19910;-47
2022/09/02 11:59:07;;;;;;;;;;;38.00;33.70;;;29.37;37.63;95329.03;4971893;28;19920;-47